Time;durP1;ratioP1;P1;durP2;ratioP2;P2;SDS_P1;SDS_P2;PMS_P1;PMS_P2;Temp;Humidity;BMP_temperature;BMP_pressure;BME280_temperature;BME280_humidity;BME280_pressure;Samples;Min_cycle;Max_cycle;Signal;HPM_P1;HPM_P2
2021/09/01 00:00:49;;;;;;;15.60;4.63;;;15.90;91.90;;;;;;4989301;28;20039;-52
2021/09/01 00:03:15;;;;;;;17.05;4.90;;;15.90;91.90;;;;;;4977699;28;20046;-51
2021/09/01 00:05:40;;;;;;;14.55;4.43;;;15.90;91.90;;;;;;4994040;28;20058;-52
2021/09/01 00:08:06;;;;;;;22.17;5.70;;;15.80;91.80;;;;;;4992792;28;20046;-52
2021/09/01 00:10:32;;;;;;;16.50;4.72;;;15.90;91.80;;;;;;4983283;28;20042;-53
2021/09/01 00:12:58;;;;;;;16.63;5.07;;;15.90;91.80;;;;;;4979307;28;20119;-54
2021/09/01 00:15:24;;;;;;;15.35;4.15;;;15.90;91.80;;;;;;4976761;28;20078;-55
2021/09/01 00:17:49;;;;;;;14.52;4.82;;;15.80;91.80;;;;;;4989027;28;20474;-54
2021/09/01 00:20:15;;;;;;;20.38;5.13;;;15.90;91.90;;;;;;4989784;28;20129;-51
2021/09/01 00:22:41;;;;;;;24.23;4.70;;;15.80;91.90;;;;;;4994415;28;20037;-51
2021/09/01 00:25:08;;;;;;;19.50;5.32;;;15.80;91.90;;;;;;4994189;28;20406;-52
2021/09/01 00:27:34;;;;;;;14.50;4.60;;;15.70;91.90;;;;;;4994023;28;20101;-51
2021/09/01 00:29:59;;;;;;;17.88;5.18;;;15.80;91.90;;;;;;4994379;28;20121;-51
2021/09/01 00:32:25;;;;;;;14.35;4.85;;;15.80;91.80;;;;;;4994377;28;20121;-52
2021/09/01 00:34:51;;;;;;;16.63;4.82;;;15.80;91.80;;;;;;4993813;28;20026;-51
2021/09/01 00:37:16;;;;;;;17.05;5.15;;;15.80;91.80;;;;;;4985385;28;20046;-52
2021/09/01 00:39:42;;;;;;;18.75;5.88;;;15.80;91.80;;;;;;4977163;28;20045;-51
2021/09/01 00:42:09;;;;;;;20.00;5.55;;;15.80;91.90;;;;;;4994100;28;20115;-52
2021/09/01 00:44:35;;;;;;;17.67;5.55;;;15.80;91.80;;;;;;4988964;28;20035;-54
2021/09/01 00:47:02;;;;;;;13.60;4.90;;;15.80;91.80;;;;;;4985093;28;20034;-51
2021/09/01 00:49:29;;;;;;;12.95;4.45;;;15.70;91.90;;;;;;4992657;28;20081;-51
2021/09/01 00:51:56;;;;;;;13.90;4.72;;;15.70;91.90;;;;;;4980339;28;20050;-51
2021/09/01 00:54:23;;;;;;;14.73;5.28;;;15.70;92.00;;;;;;4986983;28;20114;-51
2021/09/01 00:56:53;;;;;;;16.10;4.95;;;15.70;92.10;;;;;;4994349;28;20480;-54
2021/09/01 00:59:20;;;;;;;16.70;5.80;;;15.70;92.20;;;;;;4989682;28;20061;-53
2021/09/01 01:01:46;;;;;;;17.00;4.72;;;15.60;92.20;;;;;;4993306;28;20511;-52
2021/09/01 01:04:12;;;;;;;14.75;5.35;;;15.70;92.20;;;;;;4991240;28;20038;-53
2021/09/01 01:06:37;;;;;;;17.88;5.15;;;15.70;92.30;;;;;;4983484;28;20043;-51
2021/09/01 01:09:03;;;;;;;16.45;5.30;;;15.60;92.30;;;;;;4993814;28;20042;-52
2021/09/01 01:11:29;;;;;;;12.88;5.05;;;15.60;92.20;;;;;;4993322;28;20042;-54
2021/09/01 01:13:55;;;;;;;17.85;5.40;;;15.70;92.30;;;;;;4991946;28;20034;-51
2021/09/01 01:16:25;;;;;;;16.50;5.30;;;15.60;92.20;;;;;;4993518;28;20039;-51
2021/09/01 01:18:51;;;;;;;17.27;5.97;;;15.60;92.20;;;;;;4993790;28;20486;-51
2021/09/01 01:21:19;;;;;;;21.70;5.85;;;15.60;92.20;;;;;;4994060;28;20277;-51
2021/09/01 01:23:47;;;;;;;13.70;4.93;;;15.60;92.30;;;;;;4993094;28;20042;-54
2021/09/01 01:26:13;;;;;;;21.00;5.60;;;15.60;92.20;;;;;;4992942;28;20050;-51
2021/09/01 01:28:38;;;;;;;20.10;5.32;;;15.60;92.30;;;;;;4992051;28;20513;-52
2021/09/01 01:31:04;;;;;;;16.85;5.43;;;15.50;92.40;;;;;;4993755;28;20062;-52
2021/09/01 01:33:29;;;;;;;14.15;5.10;;;15.50;92.50;;;;;;4993252;28;20447;-55
2021/09/01 01:35:55;;;;;;;14.68;5.78;;;15.50;92.60;;;;;;4992277;28;20419;-52
2021/09/01 01:38:20;;;;;;;21.33;6.05;;;15.50;92.60;;;;;;4982807;28;20062;-51
2021/09/01 01:40:47;;;;;;;17.02;5.95;;;15.50;92.60;;;;;;4989785;28;20454;-53
2021/09/01 01:43:14;;;;;;;17.88;4.93;;;15.50;92.70;;;;;;4993095;28;20034;-51
2021/09/01 01:45:44;;;;;;;17.67;5.45;;;15.50;92.70;;;;;;4992228;28;20047;-52
2021/09/01 01:48:12;;;;;;;17.85;5.50;;;15.50;92.80;;;;;;4993263;28;20053;-53
2021/09/01 01:50:38;;;;;;;17.85;5.43;;;15.50;92.80;;;;;;4993198;28;20053;-51
2021/09/01 01:53:05;;;;;;;15.10;5.57;;;15.50;92.90;;;;;;4992796;28;20129;-52
2021/09/01 01:55:32;;;;;;;17.20;5.65;;;15.50;92.90;;;;;;4992344;28;20407;-51
2021/09/01 01:57:58;;;;;;;14.68;5.43;;;15.50;92.90;;;;;;4992629;28;20096;-51
2021/09/01 02:00:23;;;;;;;17.40;5.82;;;15.50;92.90;;;;;;4993076;28;20042;-51
2021/09/01 02:02:49;;;;;;;19.75;5.68;;;15.50;92.90;;;;;;4992673;28;20049;-51
2021/09/01 02:05:14;;;;;;;17.55;5.47;;;15.40;92.90;;;;;;4992479;28;20038;-56
2021/09/01 02:07:40;;;;;;;15.82;5.47;;;15.50;92.90;;;;;;4991601;28;20038;-51
2021/09/01 02:10:07;;;;;;;21.48;5.72;;;15.40;92.90;;;;;;4992162;28;20042;-51
2021/09/01 02:12:33;;;;;;;19.58;5.55;;;15.40;92.80;;;;;;4992647;28;20039;-51
2021/09/01 02:15:00;;;;;;;16.40;5.63;;;15.40;92.80;;;;;;4991844;28;20521;-54
2021/09/01 02:17:26;;;;;;;17.73;5.47;;;15.40;92.80;;;;;;4992723;28;20144;-54
2021/09/01 02:19:52;;;;;;;20.13;5.57;;;15.40;92.70;;;;;;4992016;28;20034;-58
2021/09/01 02:22:18;;;;;;;15.30;5.05;;;15.40;92.70;;;;;;4992442;28;20045;-52
2021/09/01 02:24:43;;;;;;;16.38;5.25;;;15.40;92.70;;;;;;4991494;28;20070;-51
2021/09/01 02:27:09;;;;;;;17.45;5.32;;;15.40;92.80;;;;;;4981581;28;20048;-54
2021/09/01 02:29:35;;;;;;;14.38;5.30;;;15.40;92.80;;;;;;4992369;28;20454;-51
2021/09/01 02:32:01;;;;;;;16.92;5.63;;;15.40;92.80;;;;;;4982621;28;20475;-52
2021/09/01 02:34:26;;;;;;;18.55;5.38;;;15.40;92.80;;;;;;4991377;28;20346;-52
2021/09/01 02:36:52;;;;;;;14.85;5.25;;;15.40;92.80;;;;;;4992078;28;20077;-51
2021/09/01 02:39:17;;;;;;;20.92;5.60;;;15.40;92.90;;;;;;4990125;28;20034;-52
2021/09/01 02:41:43;;;;;;;13.77;5.90;;;15.40;93.00;;;;;;4991992;28;20038;-55
2021/09/01 02:44:08;;;;;;;17.45;5.57;;;15.30;93.00;;;;;;4980563;28;20042;-51
2021/09/01 02:46:34;;;;;;;19.90;5.70;;;15.30;93.00;;;;;;4983962;28;20074;-52
2021/09/01 02:49:00;;;;;;;16.67;5.38;;;15.30;93.00;;;;;;4981558;28;20093;-53
2021/09/01 02:51:25;;;;;;;14.25;5.63;;;15.30;93.00;;;;;;4975434;28;20121;-52
2021/09/01 02:53:51;;;;;;;16.92;5.80;;;15.30;93.10;;;;;;4991564;28;20521;-53
2021/09/01 02:56:17;;;;;;;17.02;5.45;;;15.30;93.30;;;;;;4990975;28;20308;-51
2021/09/01 02:58:42;;;;;;;19.30;5.45;;;15.30;93.30;;;;;;4981054;28;20122;-55
2021/09/01 03:01:08;;;;;;;13.05;5.30;;;15.30;93.30;;;;;;4986995;28;20524;-51
2021/09/01 03:03:33;;;;;;;14.20;5.35;;;15.30;93.30;;;;;;4989934;28;20410;-51
2021/09/01 03:05:59;;;;;;;18.98;6.25;;;15.30;93.40;;;;;;4971564;28;20514;-52
2021/09/01 03:08:24;;;;;;;19.40;5.85;;;15.20;93.40;;;;;;4989448;28;20049;-51
2021/09/01 03:10:50;;;;;;;18.30;6.03;;;15.20;93.50;;;;;;4980826;28;20047;-57
2021/09/01 03:13:15;;;;;;;14.85;5.28;;;15.20;93.50;;;;;;4988437;28;20034;-52
2021/09/01 03:15:41;;;;;;;16.58;5.90;;;15.20;93.50;;;;;;4991102;28;20049;-51
2021/09/01 03:18:06;;;;;;;16.60;5.78;;;15.20;93.60;;;;;;4990310;28;20034;-51
2021/09/01 03:20:32;;;;;;;11.95;5.40;;;15.20;93.60;;;;;;4979229;28;20132;-55
2021/09/01 03:22:57;;;;;;;14.27;5.32;;;15.20;93.70;;;;;;4991292;28;20046;-53
2021/09/01 03:25:23;;;;;;;14.35;5.35;;;15.20;93.60;;;;;;4990371;28;20045;-51
2021/09/01 03:27:49;;;;;;;13.80;5.20;;;15.20;93.80;;;;;;4990384;28;20042;-51
2021/09/01 03:30:14;;;;;;;13.55;5.78;;;15.20;93.60;;;;;;4990888;28;20045;-54
2021/09/01 03:32:40;;;;;;;17.75;5.70;;;15.20;93.70;;;;;;4982952;28;20045;-51
2021/09/01 03:35:07;;;;;;;17.42;5.75;;;15.20;93.80;;;;;;4990623;28;20100;-51
2021/09/01 03:37:32;;;;;;;15.20;5.45;;;15.20;93.70;;;;;;4984077;28;20477;-54
2021/09/01 03:39:59;;;;;;;19.13;6.28;;;15.10;93.60;;;;;;4990955;28;20126;-51
2021/09/01 03:42:24;;;;;;;19.95;5.97;;;15.20;93.60;;;;;;4989674;28;20049;-54
2021/09/01 03:44:50;;;;;;;13.77;5.15;;;15.10;93.80;;;;;;4982506;28;20492;-51
2021/09/01 03:47:16;;;;;;;14.48;5.50;;;15.20;93.60;;;;;;4989354;28;20547;-51
2021/09/01 03:49:41;;;;;;;20.17;5.45;;;15.20;93.60;;;;;;4990529;28;20121;-51
2021/09/01 03:52:07;;;;;;;17.30;5.90;;;15.10;93.60;;;;;;4977784;28;20108;-54
2021/09/01 03:54:32;;;;;;;18.00;5.85;;;15.20;93.70;;;;;;4990691;28;20040;-51
2021/09/01 03:56:58;;;;;;;18.38;5.70;;;15.20;93.80;;;;;;4991143;28;20394;-51
2021/09/01 03:59:23;;;;;;;15.23;5.35;;;15.10;93.70;;;;;;4991206;28;20502;-51
2021/09/01 04:01:49;;;;;;;14.45;5.25;;;15.10;93.70;;;;;;4990814;28;20051;-53
2021/09/01 04:04:16;;;;;;;17.17;5.60;;;15.10;93.70;;;;;;4990282;28;20128;-53
2021/09/01 04:06:42;;;;;;;16.75;5.40;;;15.10;93.70;;;;;;4990602;28;20506;-51
2021/09/01 04:09:07;;;;;;;15.25;5.53;;;15.20;93.70;;;;;;4983401;28;20046;-53
2021/09/01 04:11:33;;;;;;;16.65;5.15;;;15.10;93.60;;;;;;4975247;28;20506;-51
2021/09/01 04:13:58;;;;;;;13.15;5.53;;;15.10;93.60;;;;;;4989365;28;20494;-51
2021/09/01 04:16:24;;;;;;;16.83;4.90;;;15.10;93.50;;;;;;4984049;28;20157;-52
2021/09/01 04:18:49;;;;;;;14.10;5.35;;;15.10;93.50;;;;;;4980155;28;20445;-54
2021/09/01 04:21:15;;;;;;;19.13;5.60;;;15.10;93.50;;;;;;4990542;28;20046;-51
2021/09/01 04:23:40;;;;;;;16.88;5.25;;;15.10;93.50;;;;;;4987974;28;20410;-51
2021/09/01 04:26:06;;;;;;;12.73;4.93;;;15.10;93.40;;;;;;4982033;28;20414;-51
2021/09/01 04:28:31;;;;;;;16.10;5.40;;;15.10;93.50;;;;;;4990876;28;20045;-58
2021/09/01 04:30:57;;;;;;;18.33;5.90;;;15.10;93.50;;;;;;4992885;28;20517;-51
2021/09/01 04:33:23;;;;;;;16.70;5.50;;;15.10;93.60;;;;;;4994045;28;20073;-51
2021/09/01 04:35:48;;;;;;;13.95;4.90;;;15.10;93.70;;;;;;4985709;28;20034;-53
2021/09/01 04:38:14;;;;;;;17.05;5.28;;;15.10;93.80;;;;;;4984891;28;20042;-52
2021/09/01 04:40:40;;;;;;;13.57;5.28;;;15.10;93.80;;;;;;4994597;28;20054;-54
2021/09/01 04:43:06;;;;;;;15.93;5.63;;;15.10;93.80;;;;;;4987237;28;20030;-51
2021/09/01 04:45:31;;;;;;;14.48;5.30;;;15.10;93.80;;;;;;4993876;28;20042;-52
2021/09/01 04:47:57;;;;;;;15.23;5.07;;;15.10;93.80;;;;;;4993695;28;20077;-51
2021/09/01 04:50:23;;;;;;;15.38;4.85;;;15.10;93.80;;;;;;4994213;28;20072;-52
2021/09/01 04:52:48;;;;;;;17.77;6.00;;;15.10;93.90;;;;;;4990097;28;20030;-53
2021/09/01 04:55:15;;;;;;;15.43;5.60;;;15.10;93.90;;;;;;4993520;28;20041;-54
2021/09/01 04:57:41;;;;;;;15.60;5.57;;;15.10;93.90;;;;;;4981467;28;20086;-54
2021/09/01 05:00:07;;;;;;;15.85;5.43;;;15.10;93.90;;;;;;4992798;28;20074;-55
2021/09/01 05:02:33;;;;;;;16.70;4.93;;;15.10;94.00;;;;;;4994422;28;20038;-51
2021/09/01 05:04:59;;;;;;;17.95;5.80;;;15.10;93.90;;;;;;4992704;28;20030;-52
2021/09/01 05:07:24;;;;;;;19.52;5.40;;;15.10;93.90;;;;;;4993665;28;20042;-55
2021/09/01 05:09:50;;;;;;;16.25;5.72;;;15.10;94.00;;;;;;4992902;28;20410;-51
2021/09/01 05:12:16;;;;;;;15.35;5.65;;;15.10;94.00;;;;;;4980833;28;20081;-51
2021/09/01 05:14:42;;;;;;;13.70;5.90;;;15.10;94.00;;;;;;4993453;28;20030;-52
2021/09/01 05:17:07;;;;;;;15.23;6.00;;;15.10;94.00;;;;;;4986887;28;20051;-52
2021/09/01 05:19:33;;;;;;;18.98;6.20;;;15.10;94.10;;;;;;4976709;28;20399;-54
2021/09/01 05:22:03;;;;;;;14.35;5.43;;;15.10;94.20;;;;;;4989595;28;20072;-51
2021/09/01 05:24:40;;;;;;;15.43;6.63;;;15.10;94.20;;;;;;4992758;28;20066;-53
2021/09/01 05:27:09;;;;;;;14.77;6.30;;;15.10;94.20;;;;;;4993258;28;20038;-51
2021/09/01 05:29:41;;;;;;;21.33;6.07;;;15.20;94.20;;;;;;4993076;28;20077;-58
2021/09/01 05:32:13;;;;;;;16.75;6.57;;;15.10;94.20;;;;;;4984823;28;20046;-57
2021/09/01 05:34:39;;;;;;;15.65;5.68;;;15.10;94.30;;;;;;4993076;28;20495;-57
2021/09/01 05:37:06;;;;;;;20.20;6.70;;;15.20;94.30;;;;;;4991886;28;20136;-58
2021/09/01 05:39:32;;;;;;;16.75;6.80;;;15.10;94.40;;;;;;4993993;28;20042;-57
2021/09/01 05:41:58;;;;;;;20.08;6.88;;;15.20;94.50;;;;;;4992625;28;20045;-57
2021/09/01 05:44:23;;;;;;;19.42;6.70;;;15.20;94.60;;;;;;4992633;28;20499;-57
2021/09/01 05:46:50;;;;;;;16.00;6.38;;;15.20;94.60;;;;;;4993607;28;20402;-57
2021/09/01 05:49:16;;;;;;;12.13;6.65;;;15.10;94.60;;;;;;4994003;28;20178;-57
2021/09/01 05:51:42;;;;;;;18.77;6.80;;;15.10;94.70;;;;;;4993997;28;20042;-55
2021/09/01 05:54:08;;;;;;;20.45;6.40;;;15.10;94.70;;;;;;4993616;28;20541;-57
2021/09/01 05:56:35;;;;;;;15.07;6.80;;;15.20;94.80;;;;;;4993232;28;20077;-55
2021/09/01 05:59:08;;;;;;;15.75;6.10;;;15.20;94.80;;;;;;4993548;28;20038;-57
2021/09/01 06:01:38;;;;;;;18.67;7.00;;;15.20;95.00;;;;;;4986970;28;20050;-57
2021/09/01 06:04:08;;;;;;;18.98;6.72;;;15.10;94.80;;;;;;4987632;28;20057;-55
2021/09/01 06:06:37;;;;;;;15.23;6.53;;;15.20;94.80;;;;;;4980257;28;20039;-57
2021/09/01 06:09:03;;;;;;;18.13;6.88;;;15.20;94.70;;;;;;4993426;28;20093;-57
2021/09/01 06:11:30;;;;;;;16.00;6.43;;;15.20;94.70;;;;;;4993212;28;20093;-55
2021/09/01 06:13:55;;;;;;;16.02;7.03;;;15.20;94.70;;;;;;4992103;28;20052;-57
2021/09/01 06:16:21;;;;;;;21.10;6.50;;;15.20;94.70;;;;;;4993055;28;20034;-57
2021/09/01 06:18:47;;;;;;;14.75;6.47;;;15.30;94.90;;;;;;4975826;28;20418;-56
2021/09/01 06:21:13;;;;;;;18.25;6.75;;;15.30;94.90;;;;;;4993347;28;20113;-54
2021/09/01 06:23:38;;;;;;;15.80;6.75;;;15.30;95.00;;;;;;4993467;28;20034;-57
2021/09/01 06:26:04;;;;;;;19.08;6.50;;;15.30;95.00;;;;;;4993092;28;20038;-55
2021/09/01 06:28:29;;;;;;;14.70;6.30;;;15.30;94.90;;;;;;4975063;28;20053;-57
2021/09/01 06:30:55;;;;;;;18.23;7.53;;;15.30;94.90;;;;;;4993221;28;20030;-56
2021/09/01 06:33:20;;;;;;;20.58;7.47;;;15.30;94.80;;;;;;4993210;28;20042;-57
2021/09/01 06:35:48;;;;;;;15.05;6.40;;;15.30;94.70;;;;;;4991850;28;20076;-57
2021/09/01 06:38:13;;;;;;;17.67;6.32;;;15.40;94.70;;;;;;4992824;28;20092;-57
2021/09/01 06:40:39;;;;;;;17.20;5.85;;;15.40;94.70;;;;;;4992784;28;20431;-56
2021/09/01 06:43:05;;;;;;;17.35;6.63;;;15.40;94.70;;;;;;4992770;28;20468;-57
2021/09/01 06:45:30;;;;;;;17.55;6.75;;;15.40;94.60;;;;;;4992395;28;20121;-54
2021/09/01 06:47:56;;;;;;;14.70;5.75;;;15.40;94.60;;;;;;4992627;28;20525;-56
2021/09/01 06:50:25;;;;;;;13.25;6.05;;;15.40;94.50;;;;;;4992738;28;20489;-55
2021/09/01 06:52:52;;;;;;;17.58;6.05;;;15.50;94.40;;;;;;4992927;28;20058;-57
2021/09/01 06:55:18;;;;;;;18.30;6.00;;;15.50;94.30;;;;;;4992455;28;20113;-57
2021/09/01 06:57:44;;;;;;;16.30;6.00;;;15.50;94.30;;;;;;4991489;23;20136;-55
2021/09/01 07:00:12;;;;;;;15.07;6.10;;;15.50;94.30;;;;;;4981356;28;20047;-53
2021/09/01 07:02:38;;;;;;;18.75;6.22;;;15.50;94.30;;;;;;4991968;28;20053;-54
2021/09/01 07:05:04;;;;;;;15.48;5.95;;;15.50;94.30;;;;;;4992286;28;20042;-53
2021/09/01 07:07:30;;;;;;;15.80;6.22;;;15.50;94.20;;;;;;4992199;28;20517;-53
2021/09/01 07:09:55;;;;;;;20.27;5.65;;;15.50;94.20;;;;;;4993115;28;20049;-52
2021/09/01 07:12:22;;;;;;;13.63;5.78;;;15.60;94.30;;;;;;4990140;28;20038;-53
2021/09/01 07:14:49;;;;;;;19.05;6.45;;;15.50;94.30;;;;;;4991311;28;20056;-53
2021/09/01 07:17:14;;;;;;;15.85;6.20;;;15.60;94.20;;;;;;4992419;28;20027;-50
2021/09/01 07:19:40;;;;;;;15.40;5.35;;;15.60;94.30;;;;;;4992582;28;20038;-50
2021/09/01 07:22:05;;;;;;;15.00;5.53;;;15.60;94.30;;;;;;4992205;28;20053;-54
2021/09/01 07:24:31;;;;;;;19.73;5.93;;;15.70;94.40;;;;;;4958907;28;20525;-51
2021/09/01 07:26:57;;;;;;;14.50;5.63;;;15.70;94.40;;;;;;4974726;28;20042;-51
2021/09/01 07:29:22;;;;;;;13.15;6.00;;;15.70;94.30;;;;;;4991938;28;20414;-50
2021/09/01 07:31:48;;;;;;;13.65;5.57;;;15.80;94.30;;;;;;4975072;28;20410;-53
2021/09/01 07:34:13;;;;;;;14.93;5.57;;;15.80;94.40;;;;;;4958714;28;20515;-51
2021/09/01 07:36:39;;;;;;;15.15;5.38;;;15.80;94.50;;;;;;4992211;28;20042;-50
2021/09/01 07:39:04;;;;;;;13.82;5.25;;;15.90;94.40;;;;;;4991842;28;20038;-51
2021/09/01 07:41:30;;;;;;;14.02;5.88;;;15.90;94.40;;;;;;4992190;28;20046;-53
2021/09/01 07:43:56;;;;;;;12.63;5.22;;;15.90;94.40;;;;;;4992628;28;20038;-51
2021/09/01 07:46:21;;;;;;;15.60;5.90;;;15.90;94.40;;;;;;4992294;28;20071;-50
2021/09/01 07:48:47;;;;;;;17.15;5.90;;;15.90;94.40;;;;;;4991891;28;20486;-51
2021/09/01 07:51:12;;;;;;;14.07;5.43;;;16.00;94.50;;;;;;4974599;28;20144;-51
2021/09/01 07:53:38;;;;;;;15.48;5.85;;;16.00;94.40;;;;;;4974430;28;20530;-50
2021/09/01 07:56:03;;;;;;;14.88;5.88;;;16.00;94.20;;;;;;4991307;28;20469;-50
2021/09/01 07:58:29;;;;;;;18.05;5.45;;;16.10;94.20;;;;;;4958949;28;20062;-51
2021/09/01 08:00:54;;;;;;;14.48;6.40;;;16.10;94.10;;;;;;4992021;28;20117;-54
2021/09/01 08:03:20;;;;;;;19.60;5.40;;;16.10;94.10;;;;;;4974420;28;20125;-50
2021/09/01 08:05:46;;;;;;;16.60;5.28;;;16.10;94.10;;;;;;4995350;28;20097;-53
2021/09/01 08:08:12;;;;;;;12.95;4.75;;;16.20;94.00;;;;;;4996517;28;20042;-50
2021/09/01 08:10:37;;;;;;;14.55;5.20;;;16.20;93.90;;;;;;4995198;28;20049;-52
2021/09/01 08:13:03;;;;;;;11.77;4.65;;;16.20;93.90;;;;;;4996374;28;20037;-53
2021/09/01 08:15:29;;;;;;;11.70;4.57;;;16.20;93.80;;;;;;4962635;28;20480;-52
2021/09/01 08:17:55;;;;;;;14.25;5.03;;;16.30;93.60;;;;;;4995979;28;20109;-50
2021/09/01 08:20:21;;;;;;;13.70;5.00;;;16.30;93.60;;;;;;4995886;28;20034;-50
2021/09/01 08:22:46;;;;;;;12.65;4.70;;;16.30;93.60;;;;;;4995544;28;20388;-51
2021/09/01 08:25:12;;;;;;;13.10;5.00;;;16.40;93.50;;;;;;4994901;28;20070;-50
2021/09/01 08:27:38;;;;;;;14.27;5.30;;;16.30;93.40;;;;;;4995390;28;20042;-56
2021/09/01 08:30:06;;;;;;;19.13;5.38;;;16.40;93.20;;;;;;4978070;28;20054;-50
2021/09/01 08:32:32;;;;;;;13.30;4.60;;;16.40;93.20;;;;;;4995519;28;20049;-51
2021/09/01 08:34:58;;;;;;;16.45;5.18;;;16.40;93.00;;;;;;4946164;28;20046;-53
2021/09/01 08:37:24;;;;;;;18.58;4.53;;;16.50;93.10;;;;;;4995577;28;20046;-53
2021/09/01 08:39:50;;;;;;;16.27;5.05;;;16.50;92.80;;;;;;4962158;28;20129;-53
2021/09/01 08:42:19;;;;;;;10.48;4.50;;;16.50;92.90;;;;;;4995206;28;20161;-53
2021/09/01 08:44:45;;;;;;;16.20;4.60;;;16.50;93.00;;;;;;4995091;28;20042;-51
2021/09/01 08:47:11;;;;;;;10.65;4.60;;;16.60;93.00;;;;;;4978628;28;20064;-54
2021/09/01 08:49:37;;;;;;;14.93;5.03;;;16.60;92.80;;;;;;4995366;28;20565;-53
2021/09/01 08:52:03;;;;;;;12.23;4.88;;;16.70;92.90;;;;;;4995056;28;20139;-53
2021/09/01 08:54:29;;;;;;;12.85;4.78;;;16.70;92.90;;;;;;4961657;28;20507;-51
2021/09/01 08:56:55;;;;;;;11.82;4.30;;;16.70;92.70;;;;;;4978154;28;20035;-53
2021/09/01 08:59:22;;;;;;;14.10;4.32;;;16.70;92.50;;;;;;4961781;28;20049;-54
2021/09/01 09:01:50;;;;;;;11.20;3.70;;;16.80;92.30;;;;;;4978206;28;20042;-53
2021/09/01 09:04:21;;;;;;;13.88;4.55;;;16.80;91.90;;;;;;4994621;28;20126;-52
2021/09/01 09:06:54;;;;;;;12.90;4.68;;;16.80;92.00;;;;;;4994234;28;20412;-54
2021/09/01 09:09:25;;;;;;;14.40;4.78;;;16.90;92.00;;;;;;4961707;28;20069;-54
2021/09/01 09:11:51;;;;;;;18.05;5.00;;;16.90;91.90;;;;;;4977200;28;20114;-55
2021/09/01 09:14:23;;;;;;;14.73;4.35;;;16.90;92.00;;;;;;4994522;28;20038;-52
2021/09/01 09:17:09;;;;;;;11.88;4.40;;;16.90;91.90;;;;;;4976300;28;20566;-53
2021/09/01 09:19:54;;;;;;;13.32;4.53;;;17.00;91.40;;;;;;4994961;28;20034;-55
2021/09/01 09:22:34;;;;;;;18.52;5.97;;;17.00;91.60;;;;;;4994257;28;20035;-53
2021/09/01 09:25:22;;;;;;;21.60;5.90;;;17.00;91.90;;;;;;4994749;28;20038;-53
2021/09/01 09:27:53;;;;;;;16.80;4.70;;;17.10;91.90;;;;;;4994671;28;20046;-54
2021/09/01 09:30:47;;;;;;;13.25;4.47;;;17.10;91.80;;;;;;4995212;28;20038;-54
2021/09/01 09:33:24;;;;;;;12.55;4.03;;;17.20;91.20;;;;;;4993682;28;20042;-54
2021/09/01 09:36:01;;;;;;;16.48;4.72;;;17.20;90.40;;;;;;4993699;28;20074;-53
2021/09/01 09:38:45;;;;;;;18.15;4.22;;;17.20;90.70;;;;;;4994273;28;20040;-54
2021/09/01 09:41:28;;;;;;;13.95;4.75;;;17.20;90.90;;;;;;4994124;28;20046;-53
2021/09/01 09:43:57;;;;;;;14.98;4.60;;;17.30;88.20;;;;;;4982445;28;20402;-54
2021/09/01 09:46:23;;;;;;;12.07;4.68;;;17.30;90.00;;;;;;4993833;28;20535;-50
2021/09/01 09:48:50;;;;;;;10.23;4.10;;;17.30;90.30;;;;;;4993866;28;20048;-54
2021/09/01 09:51:18;;;;;;;13.32;4.50;;;17.30;90.40;;;;;;4994569;28;20046;-52
2021/09/01 09:53:46;;;;;;;12.38;4.22;;;17.30;90.50;;;;;;4976740;28;20069;-52
2021/09/01 09:56:16;;;;;;;13.00;4.40;;;17.40;90.40;;;;;;4978901;28;20039;-51
2021/09/01 09:58:44;;;;;;;14.65;4.57;;;17.40;90.20;;;;;;4993777;28;20039;-52
2021/09/01 10:01:11;;;;;;;14.77;4.50;;;17.40;90.10;;;;;;4993551;28;20502;-51
2021/09/01 10:03:38;;;;;;;14.07;4.63;;;17.40;90.30;;;;;;4992869;28;20038;-51
2021/09/01 10:06:06;;;;;;;15.68;4.35;;;17.40;90.40;;;;;;4993580;28;20050;-53
2021/09/01 10:08:33;;;;;;;12.63;4.50;;;17.50;90.70;;;;;;4992963;28;20038;-52
2021/09/01 10:11:04;;;;;;;15.23;4.47;;;17.50;90.60;;;;;;4993848;28;20549;-50
2021/09/01 10:13:31;;;;;;;12.93;4.22;;;17.50;90.30;;;;;;4993522;28;20050;-50
2021/09/01 10:16:22;;;;;;;13.50;3.97;;;17.50;90.10;;;;;;4993110;28;20458;-51
2021/09/01 10:19:04;;;;;;;11.90;4.65;;;17.50;88.20;;;;;;4976045;28;20052;-52
2021/09/01 10:21:32;;;;;;;11.67;3.83;;;17.50;88.30;;;;;;4993571;28;20037;-57
2021/09/01 10:24:18;;;;;;;10.00;4.28;;;17.60;89.00;;;;;;4975969;28;20662;-56
2021/09/01 10:27:05;;;;;;;15.18;4.53;;;17.60;87.70;;;;;;4993349;28;20083;-56
2021/09/01 10:29:41;;;;;;;12.30;4.40;;;17.60;88.80;;;;;;4959142;28;20046;-56
2021/09/01 10:32:31;;;;;;;13.93;4.13;;;17.60;88.30;;;;;;4992942;28;20046;-56
2021/09/01 10:35:17;;;;;;;14.45;4.57;;;17.60;89.00;;;;;;4993130;28;20038;-50
2021/09/01 10:37:51;;;;;;;14.75;4.65;;;17.60;88.30;;;;;;4979192;28;20030;-52
2021/09/01 10:40:20;;;;;;;12.85;4.13;;;17.60;88.60;;;;;;4992686;28;20474;-50
2021/09/01 10:42:47;;;;;;;13.57;3.97;;;17.60;89.00;;;;;;4993138;28;20058;-50
2021/09/01 10:45:18;;;;;;;13.77;4.40;;;17.60;89.20;;;;;;4992592;28;20039;-53
2021/09/01 10:47:49;;;;;;;12.43;3.87;;;17.60;89.10;;;;;;4975664;28;20069;-51
2021/09/01 10:50:17;;;;;;;13.15;4.30;;;17.60;89.40;;;;;;4993116;28;20050;-52
2021/09/01 10:53:17;;;;;;;9.50;3.97;;;17.60;89.20;;;;;;4992815;28;20112;-54
2021/09/01 10:56:06;;;;;;;14.18;4.10;;;17.60;88.50;;;;;;4975911;28;20062;-51
2021/09/01 10:58:39;;;;;;;19.65;4.93;;;17.60;88.70;;;;;;4992226;28;20062;-50
2021/09/01 11:01:17;;;;;;;13.18;4.35;;;17.60;88.90;;;;;;4992519;28;20521;-52
2021/09/01 11:03:42;;;;;;;14.90;3.90;;;17.60;88.40;;;;;;4992529;28;20581;-51
2021/09/01 11:06:16;;;;;;;13.45;3.88;;;17.60;88.10;;;;;;4992630;28;20046;-50
2021/09/01 11:09:14;;;;;;;13.88;3.70;;;17.60;87.80;;;;;;4974990;28;20405;-51
2021/09/01 11:11:53;;;;;;;12.48;4.00;;;17.50;88.00;;;;;;4963411;28;20037;-50
2021/09/01 11:14:38;;;;;;;12.40;4.10;;;17.60;88.40;;;;;;4968437;28;20054;-50
2021/09/01 11:17:07;;;;;;;14.65;4.03;;;17.60;86.40;;;;;;4980722;28;20625;-50
2021/09/01 11:19:33;;;;;;;11.77;3.80;;;17.60;87.00;;;;;;4992246;28;20041;-51
2021/09/01 11:22:06;;;;;;;13.40;4.10;;;17.70;84.30;;;;;;4993011;28;20038;-51
2021/09/01 11:24:59;;;;;;;10.25;4.32;;;17.80;84.50;;;;;;4992363;28;20398;-52
2021/09/01 11:27:27;;;;;;;10.60;3.85;;;17.70;85.10;;;;;;4974436;28;20522;-50
2021/09/01 11:30:01;;;;;;;9.18;3.75;;;17.70;85.70;;;;;;4992154;28;20064;-51
2021/09/01 11:32:27;;;;;;;10.70;3.92;;;17.70;85.60;;;;;;4992262;28;20046;-52
2021/09/01 11:34:53;;;;;;;12.73;3.88;;;17.70;86.10;;;;;;4991763;28;20522;-53
2021/09/01 11:37:20;;;;;;;12.30;3.78;;;17.70;85.30;;;;;;4992116;28;20051;-50
2021/09/01 11:39:48;;;;;;;12.43;4.28;;;17.70;85.70;;;;;;4991300;28;20042;-53
2021/09/01 11:42:14;;;;;;;12.15;3.70;;;17.70;85.90;;;;;;4991782;28;20074;-54
2021/09/01 11:44:41;;;;;;;11.18;4.00;;;17.80;86.30;;;;;;4991767;28;20447;-53
2021/09/01 11:47:25;;;;;;;10.85;3.80;;;17.80;86.80;;;;;;4974426;28;20056;-53
2021/09/01 11:49:56;;;;;;;17.23;4.07;;;17.80;86.60;;;;;;4992099;28;20046;-51
2021/09/01 11:52:29;;;;;;;11.07;3.92;;;17.80;86.80;;;;;;4992100;28;20042;-54
2021/09/01 11:54:55;;;;;;;10.38;4.07;;;17.80;86.90;;;;;;4991083;28;20507;-53
2021/09/01 11:57:25;;;;;;;14.70;3.90;;;17.80;87.10;;;;;;4991467;28;20073;-52
2021/09/01 11:59:51;;;;;;;13.38;4.45;;;17.90;86.90;;;;;;4974914;28;20060;-54
2021/09/01 12:02:26;;;;;;;14.02;3.85;;;17.90;87.00;;;;;;4992213;28;20034;-51
2021/09/01 12:04:52;;;;;;;10.27;3.90;;;17.90;86.80;;;;;;4958356;28;20078;-54
2021/09/01 12:07:29;;;;;;;13.18;4.07;;;17.90;86.80;;;;;;4991652;28;20173;-52
2021/09/01 12:10:03;;;;;;;9.95;3.53;;;17.90;86.30;;;;;;4991412;28;20074;-53
2021/09/01 12:12:39;;;;;;;11.55;3.80;;;17.90;86.30;;;;;;4958661;28;20576;-50
2021/09/01 12:15:13;;;;;;;14.98;4.13;;;17.90;85.70;;;;;;4974523;28;20046;-50
2021/09/01 12:17:41;;;;;;;13.10;4.07;;;17.90;86.10;;;;;;4974322;28;20041;-53
2021/09/01 12:20:11;;;;;;;11.63;3.83;;;17.90;86.80;;;;;;4991732;28;20121;-52
2021/09/01 12:22:45;;;;;;;10.50;3.78;;;17.90;87.00;;;;;;4991334;28;20049;-51
2021/09/01 12:25:22;;;;;;;10.52;4.03;;;17.90;86.60;;;;;;4991729;28;20138;-55
2021/09/01 12:28:07;;;;;;;13.20;4.13;;;17.90;87.30;;;;;;4974115;28;20046;-51
2021/09/01 12:30:43;;;;;;;11.63;4.30;;;17.90;87.80;;;;;;4991792;28;20411;-55
2021/09/01 12:33:17;;;;;;;11.68;4.28;;;17.90;87.30;;;;;;4991864;28;20437;-53
2021/09/01 12:35:45;;;;;;;13.68;4.00;;;17.90;87.10;;;;;;4974332;28;20050;-52
2021/09/01 12:38:24;;;;;;;14.52;4.47;;;17.90;87.30;;;;;;4973723;28;20035;-55
2021/09/01 12:40:50;;;;;;;9.43;4.00;;;18.00;88.20;;;;;;4992025;28;20414;-52
2021/09/01 12:43:16;;;;;;;10.52;4.00;;;18.00;88.00;;;;;;4991450;28;20165;-52